Holy Trinity, Alabama
Current Conditions -  °F | °C
As of 1:58 PM on Saturday 25 Oct 2014 (Local Time) from KLSF Reporting Station
Clear Clear  
Wind Chill: 76°   Ceiling: Unl
Heat Index: 78°   Visibility: 10mi
Dew Point: 44°   Wind: 5mph
Humidity: 31%   Direction: NA
Pressure: 30.01"   Gusts: NA
Location:  32.22°N, 85.01°W
Report Text: KLSF 251858Z AUTO VRB04KT 10SM CLR 25/07 A3001 RMK AO2 SLP164 T02470067
Loading
Personal Weather Stations






























Interactive Weather Map
Tropical Storm Tracking
New forecast layout! Learn more

10-Day Weather Forecast

Advertisements
Track Severe Weather on mobile